Irvington, AL

1:58 PM CST on January 27, 2015 (GMT -0600)
Evonik Industries | Change Station
CLOSE
Current Station
Personal Weather Station
Location: Theodore, AL
Elevation: 25 ft
Nearby Weather Stations

Elev 25 ft 30.52 °N, 88.13 °W | Updated 9 seconds ago

Clear
Clear
67.2 °F
Feels Like 67.2 °F
N
11.2
Wind Variable Wind from NW
Gusts 16.6 mph

Today
High -- | Low -- °F
--% Chance of Precip.
Yesterday
High -- | Low -- °F
Precip. -- in
6:46 AM 5:24 PM
First Quarter, 57% visible
Pressure 30.04 in
Visibility 10.0 miles
Clouds Clear
Dew Point 36 °F
Humidity 31%
Rainfall 0.00 in
Snow Depth Not available.
UV 4 out of 12
Pollen 5.90 out of 12
Air Quality Not available.
Flu Activity Not available.
METAR KBFM 271953Z 31012KT 10SM CLR 21/02 A3003 RMK AO2 SLP170 T02110017

More Conditions Fewer Conditions

Pressure 30.04 in
Visibility 10.0 miles
Clouds Clear
Dew Point 36 °F
Humidity 31%
Rainfall 0.00 in
Snow Depth Not available.
UV 4 out of 12
Pollen 5.90 out of 12
Air Quality Not available.
Flu Activity Not available.
METAR KBFM 271953Z 31012KT 10SM CLR 21/02 A3003 RMK AO2 SLP170 T02110017

More Conditions Fewer Conditions

10-Day Weather Forecast

Almanac

Astronomy

Jan. 27, 2015 Rise Set
Actual Time
Civil Twilight
Nautical Twilight
Astronomical Twilight
Moon
Length of Visible Light
Length of Day
Tomorrow will be .
, % of the Moon is Illuminated

Today's Extremes

State Highs State Lows

Community

WunderPhotos

Upload Photos

1,790,837 photos uploaded!

WunderBlogs® & News

Nearby

Air Quality

  Air Quality AQ Index Pollutant
Not available.

Snow Depth

Station Depth Elevation

Earthquake Activity

City Distance Mag. Time & Date
Minimum magnitude displayed is 2.5.

Coastal Water Temperatures

Place Temperature

Nearby Weather Stations